Time;durP1;ratioP1;P1;durP2;ratioP2;P2;SDS_P1;SDS_P2;PMS_P1;PMS_P2;Temp;Humidity;BMP_temperature;BMP_pressure;BME280_temperature;BME280_humidity;BME280_pressure;Samples;Min_cycle;Max_cycle;Signal;HPM_P1;HPM_P2
2022/11/11 00:01:25;;;;;;;5.20;2.35;;;6.50;99.90;;;;;;6196801;28;20065;-85
2022/11/11 00:04:26;;;;;;;5.63;2.40;;;6.50;99.90;;;;;;6204461;28;20050;-83
2022/11/11 00:07:28;;;;;;;4.40;2.35;;;6.40;99.90;;;;;;6205484;28;20057;-82
2022/11/11 00:10:32;;;;;;;5.70;2.17;;;6.40;99.90;;;;;;6206120;28;20444;-83
2022/11/11 00:13:38;;;;;;;4.85;2.28;;;6.30;99.90;;;;;;6197518;28;20056;-83
2022/11/11 00:26:42;;;;;;;3.72;2.05;;;6.20;99.90;;;;;;6206561;28;20496;-84
2022/11/11 00:29:46;;;;;;;7.75;2.33;;;6.20;99.90;;;;;;6224961;28;20046;-84
2022/11/11 00:32:48;;;;;;;8.55;2.00;;;6.10;99.90;;;;;;6223365;28;20057;-84
2022/11/11 00:35:53;;;;;;;10.65;1.98;;;6.10;99.90;;;;;;6182829;28;20046;-83
2022/11/11 00:38:54;;;;;;;5.03;2.35;;;6.10;99.90;;;;;;6225255;28;20042;-84
2022/11/11 00:41:57;;;;;;;8.02;1.90;;;6.10;99.90;;;;;;6225790;28;20129;-84
2022/11/11 00:44:59;;;;;;;3.78;1.70;;;6.00;99.90;;;;;;6230896;28;20053;-83
2022/11/11 00:51:20;;;;;;;3.22;2.13;;;6.00;99.90;;;;;;6225944;28;20050;-83
2022/11/11 00:54:22;;;;;;;7.65;2.25;;;6.00;99.90;;;;;;6226996;28;20072;-84
2022/11/11 00:57:25;;;;;;;6.38;1.65;;;6.00;99.90;;;;;;6225130;28;20049;-83
2022/11/11 01:00:27;;;;;;;5.55;2.17;;;5.90;99.90;;;;;;6228244;28;20062;-83
2022/11/11 01:03:29;;;;;;;12.35;2.50;;;5.90;99.90;;;;;;6226995;28;20050;-84
2022/11/11 01:06:30;;;;;;;4.80;1.90;;;5.80;99.90;;;;;;6226898;28;20072;-82
2022/11/11 01:09:32;;;;;;;3.53;2.13;;;5.80;99.90;;;;;;6225269;28;20053;-83
2022/11/11 01:12:35;;;;;;;6.35;2.05;;;5.80;99.90;;;;;;6225699;28;20049;-83
2022/11/11 01:15:37;;;;;;;5.15;2.05;;;5.80;99.90;;;;;;6226339;28;20476;-82
2022/11/11 01:18:39;;;;;;;2.90;1.88;;;5.80;99.90;;;;;;6227376;28;20057;-84
2022/11/11 01:21:40;;;;;;;2.80;1.98;;;5.80;99.90;;;;;;6226404;28;20042;-84
2022/11/11 01:24:42;;;;;;;3.85;2.10;;;5.80;99.90;;;;;;6219120;28;20046;-84
2022/11/11 01:27:45;;;;;;;4.43;1.75;;;5.80;99.90;;;;;;6201809;28;20097;-84
2022/11/11 01:30:47;;;;;;;5.28;2.47;;;5.70;99.90;;;;;;6203139;28;20049;-84
2022/11/11 01:33:49;;;;;;;5.85;2.03;;;5.70;99.90;;;;;;6205928;28;20053;-83
2022/11/11 01:36:50;;;;;;;6.80;2.42;;;5.70;99.90;;;;;;6206577;28;20051;-83
2022/11/11 01:39:52;;;;;;;4.63;2.17;;;5.60;99.90;;;;;;6206589;28;20057;-83
2022/11/11 01:43:23;;;;;;;8.35;2.65;;;5.60;99.90;;;;;;6207463;28;20054;-83
2022/11/11 01:46:31;;;;;;;5.00;2.30;;;5.60;99.90;;;;;;6213884;23;20050;-85
2022/11/11 01:49:37;;;;;;;8.75;2.10;;;5.70;99.90;;;;;;6157518;28;20408;-85
2022/11/11 01:52:44;;;;;;;3.60;1.98;;;5.80;99.90;;;;;;6157996;28;20535;-86
2022/11/11 01:55:45;;;;;;;6.82;2.58;;;5.90;99.90;;;;;;6158661;28;20058;-86
2022/11/11 01:58:50;;;;;;;5.70;2.50;;;5.90;99.90;;;;;;6134154;29;20066;-84
2022/11/11 02:01:52;;;;;;;9.73;3.25;;;5.90;99.90;;;;;;6134617;28;20047;-86
2022/11/11 02:08:31;;;;;;;12.02;3.05;;;6.00;99.90;;;;;;6133920;28;20541;-85
2022/11/11 02:14:59;;;;;;;20.50;3.10;;;6.00;99.90;;;;;;6134653;29;20051;-84
2022/11/11 02:18:01;;;;;;;20.02;3.50;;;6.00;99.90;;;;;;6133455;28;20070;-85
2022/11/11 02:21:03;;;;;;;29.40;4.15;;;6.10;99.90;;;;;;6134430;28;20055;-86
2022/11/11 02:24:11;;;;;;;11.77;3.15;;;6.10;99.90;;;;;;6134029;28;20429;-85
2022/11/11 02:27:16;;;;;;;12.15;3.42;;;6.10;99.90;;;;;;6133222;29;20063;-85
2022/11/11 02:30:20;;;;;;;6.47;3.50;;;6.20;99.90;;;;;;6134282;29;20516;-83
2022/11/11 02:33:22;;;;;;;5.03;2.22;;;6.20;99.90;;;;;;6133445;28;20052;-84
2022/11/11 02:36:24;;;;;;;8.43;2.53;;;6.20;99.90;;;;;;6133060;28;20051;-85
2022/11/11 02:39:27;;;;;;;32.97;3.38;;;6.30;99.90;;;;;;6131767;28;20417;-86
2022/11/11 02:42:29;;;;;;;11.98;2.75;;;6.30;99.90;;;;;;6132957;29;20051;-86
2022/11/11 02:45:31;;;;;;;18.45;2.65;;;6.30;99.90;;;;;;6132610;28;20063;-86
2022/11/11 02:48:33;;;;;;;16.55;2.88;;;6.40;99.90;;;;;;6131670;28;20048;-85
2022/11/11 02:51:35;;;;;;;9.40;2.67;;;6.40;99.90;;;;;;6132138;28;20051;-84
2022/11/11 02:54:38;;;;;;;12.75;2.53;;;6.50;99.90;;;;;;6132650;29;20059;-86
2022/11/11 02:57:40;;;;;;;12.45;2.60;;;6.70;99.90;;;;;;6131689;28;20083;-85
2022/11/11 03:00:42;;;;;;;19.70;2.40;;;6.70;99.90;;;;;;6131735;28;20043;-86
2022/11/11 03:03:43;;;;;;;23.27;3.33;;;6.80;99.90;;;;;;6131755;28;20525;-85
2022/11/11 03:06:45;;;;;;;36.33;3.25;;;6.90;99.90;;;;;;6132895;29;20048;-85
2022/11/11 03:09:48;;;;;;;32.08;2.83;;;6.90;99.90;;;;;;6131294;28;20528;-86
2022/11/11 03:12:50;;;;;;;20.25;3.03;;;7.00;99.90;;;;;;6131936;28;20047;-84
2022/11/11 03:15:51;;;;;;;17.13;3.10;;;7.00;99.90;;;;;;6132167;28;20052;-85
2022/11/11 03:18:52;;;;;;;6.05;2.42;;;7.00;99.90;;;;;;6131890;29;20062;-85
2022/11/11 03:21:54;;;;;;;21.25;2.95;;;6.90;99.90;;;;;;6131198;28;20044;-84
2022/11/11 03:28:18;;;;;;;10.35;2.53;;;6.60;99.90;;;;;;6129623;28;20131;-83
2022/11/11 03:31:20;;;;;;;5.78;2.75;;;6.60;99.90;;;;;;6130969;28;20236;-85
2022/11/11 03:34:22;;;;;;;6.45;2.65;;;6.60;99.90;;;;;;6132141;29;20048;-85
2022/11/11 03:40:45;;;;;;;22.35;3.15;;;6.60;99.90;;;;;;6132213;28;20039;-87
2022/11/11 03:43:46;;;;;;;19.58;4.35;;;6.70;99.90;;;;;;6143801;28;20052;-82
2022/11/11 03:46:48;;;;;;;27.10;3.47;;;6.80;99.90;;;;;;6157940;28;20058;-83
2022/11/11 03:49:50;;;;;;;19.00;3.90;;;6.90;99.90;;;;;;6142311;28;20052;-86
2022/11/11 03:52:51;;;;;;;22.35;4.85;;;7.00;99.90;;;;;;6133598;28;20059;-85
2022/11/11 03:55:54;;;;;;;17.20;3.83;;;7.00;99.90;;;;;;6133109;28;20461;-86
2022/11/11 03:58:56;;;;;;;58.05;6.78;;;7.10;99.90;;;;;;6132806;29;20052;-84
2022/11/11 04:11:58;;;;;;;12.88;3.67;;;7.20;99.90;;;;;;6131560;28;20055;-85
2022/11/11 04:21:41;;;;;;;21.73;4.43;;;7.10;99.90;;;;;;6130752;29;20048;-84
2022/11/11 04:21:44;;;;;;;22.45;3.72;;;7.20;99.90;;;;;;6131225;28;20076;-85
2022/11/11 04:31:25;;;;;;;13.60;4.85;;;7.30;99.90;;;;;;6130184;28;20131;-84
2022/11/11 04:34:27;;;;;;;14.05;3.67;;;7.30;99.90;;;;;;6130971;29;20569;-86
2022/11/11 04:37:33;;;;;;;14.98;2.90;;;7.40;99.90;;;;;;6130324;28;20052;-85
2022/11/11 04:47:15;;;;;;;17.95;4.47;;;7.30;99.90;;;;;;6130398;29;20513;-84
2022/11/11 04:50:16;;;;;;;30.80;4.47;;;7.40;99.90;;;;;;6131317;29;20475;-85
2022/11/11 04:53:18;;;;;;;35.70;5.63;;;7.50;99.90;;;;;;6130431;28;20449;-83
2022/11/11 04:59:40;;;;;;;22.48;4.55;;;7.60;99.90;;;;;;6130415;28;20506;-83
2022/11/11 05:09:21;;;;;;;40.40;6.13;;;7.70;99.90;;;;;;6129720;28;20123;-84
2022/11/11 05:12:23;;;;;;;38.53;5.82;;;7.70;99.90;;;;;;6129771;28;20063;-84
2022/11/11 05:22:21;;;;;;;62.35;7.28;;;7.70;99.90;;;;;;6129374;29;20044;-85
2022/11/11 05:25:25;;;;;;;59.43;6.57;;;7.70;99.90;;;;;;6130303;28;20534;-83
2022/11/11 05:28:26;;;;;;;66.35;7.13;;;7.60;99.90;;;;;;6128902;28;20049;-85
2022/11/11 05:31:30;;;;;;;38.17;7.47;;;7.60;99.90;;;;;;6106289;29;20056;-84
2022/11/11 05:34:32;;;;;;;44.67;5.55;;;7.60;99.90;;;;;;6105822;29;20502;-84
2022/11/11 05:37:33;;;;;;;31.33;6.15;;;7.70;99.90;;;;;;6104962;29;20059;-85
2022/11/11 05:40:35;;;;;;;55.60;5.47;;;7.70;99.90;;;;;;6105672;29;20521;-85
2022/11/11 05:43:37;;;;;;;34.70;5.97;;;7.80;99.90;;;;;;6106086;29;20044;-85
2022/11/11 05:46:40;;;;;;;34.22;4.90;;;7.80;99.90;;;;;;6105750;29;20063;-84
2022/11/11 05:49:41;;;;;;;56.42;5.85;;;7.80;99.90;;;;;;6104309;29;20059;-83
2022/11/11 05:52:47;;;;;;;76.93;8.27;;;7.70;99.90;;;;;;6105245;29;20052;-84
2022/11/11 05:55:50;;;;;;;55.78;8.25;;;7.60;99.90;;;;;;6105709;29;20063;-83
2022/11/11 05:58:52;;;;;;;64.85;7.32;;;7.60;99.90;;;;;;6104764;29;20427;-83
2022/11/11 06:01:55;;;;;;;61.65;7.10;;;7.60;99.90;;;;;;6106134;29;20047;-84
2022/11/11 06:04:57;;;;;;;64.15;5.57;;;7.60;99.90;;;;;;6106980;29;20052;-82
2022/11/11 06:07:58;;;;;;;44.15;4.38;;;7.50;99.90;;;;;;6104708;29;20055;-83
2022/11/11 06:11:00;;;;;;;36.55;4.97;;;7.50;99.90;;;;;;6104817;29;20489;-84
2022/11/11 06:14:02;;;;;;;22.33;4.18;;;7.50;99.90;;;;;;6105560;29;20044;-85
2022/11/11 06:17:05;;;;;;;45.17;6.38;;;7.50;99.90;;;;;;6110390;29;20044;-83
2022/11/11 06:20:08;;;;;;;13.40;3.58;;;7.30;99.90;;;;;;6108376;29;20048;-84
2022/11/11 06:23:10;;;;;;;21.50;3.00;;;7.20;99.90;;;;;;6109676;29;20052;-84
2022/11/11 06:26:12;;;;;;;15.48;3.05;;;7.10;99.90;;;;;;6108692;29;20054;-82
2022/11/11 06:29:14;;;;;;;25.15;4.63;;;7.10;99.90;;;;;;6111484;29;20502;-83
2022/11/11 06:32:17;;;;;;;15.82;3.90;;;7.10;99.90;;;;;;6133373;28;20076;-83
2022/11/11 06:35:19;;;;;;;18.40;4.13;;;7.00;99.90;;;;;;6132503;28;20058;-84
2022/11/11 06:38:21;;;;;;;12.27;2.95;;;7.00;99.90;;;;;;6131469;29;20051;-82
2022/11/11 06:41:24;;;;;;;5.47;2.40;;;7.10;99.90;;;;;;6131338;28;20135;-83
2022/11/11 06:44:26;;;;;;;9.02;2.67;;;7.10;99.90;;;;;;6132686;28;20097;-83
2022/11/11 06:47:29;;;;;;;10.35;3.35;;;7.20;99.90;;;;;;6131691;28;20525;-84
2022/11/11 06:50:32;;;;;;;11.40;3.25;;;7.30;99.90;;;;;;6134171;29;20127;-83
2022/11/11 06:53:35;;;;;;;17.02;3.92;;;7.30;99.90;;;;;;6135021;28;20071;-84
2022/11/11 06:56:37;;;;;;;14.10;4.65;;;7.30;99.90;;;;;;6132565;28;20276;-83
2022/11/11 06:59:38;;;;;;;20.70;3.92;;;7.30;99.90;;;;;;6129202;28;20060;-84
2022/11/11 07:02:41;;;;;;;22.58;3.55;;;7.40;99.90;;;;;;6130411;29;20054;-83
2022/11/11 07:05:43;;;;;;;51.50;5.88;;;7.40;99.90;;;;;;6129768;28;20047;-84
2022/11/11 07:08:45;;;;;;;86.70;6.40;;;7.50;99.90;;;;;;6129127;28;20545;-82
2022/11/11 07:11:47;;;;;;;29.48;4.50;;;7.60;99.90;;;;;;6129341;28;20505;-83
2022/11/11 07:14:49;;;;;;;65.18;5.55;;;7.60;99.90;;;;;;6132190;29;20399;-83
2022/11/11 07:17:52;;;;;;;41.70;4.95;;;7.70;99.90;;;;;;6129920;28;20141;-82
2022/11/11 07:20:53;;;;;;;44.42;4.75;;;7.70;99.90;;;;;;6129687;28;20039;-83
2022/11/11 07:23:55;;;;;;;19.92;4.32;;;7.80;99.90;;;;;;6129997;28;20048;-84
2022/11/11 07:26:58;;;;;;;27.83;4.45;;;7.80;99.90;;;;;;6129307;29;20058;-84
2022/11/11 07:29:59;;;;;;;27.55;4.88;;;7.80;99.90;;;;;;6128687;28;20414;-82
2022/11/11 07:33:02;;;;;;;13.50;3.95;;;7.70;99.90;;;;;;6129147;28;20063;-84
2022/11/11 07:36:04;;;;;;;31.42;4.85;;;7.80;99.90;;;;;;6129204;28;20514;-83
2022/11/11 07:39:06;;;;;;;19.73;4.68;;;7.90;99.90;;;;;;6141252;28;20059;-81
2022/11/11 07:42:08;;;;;;;37.40;5.10;;;8.10;99.90;;;;;;6158255;28;20087;-82
2022/11/11 07:45:11;;;;;;;17.95;3.65;;;8.20;99.90;;;;;;6158425;28;20062;-82
2022/11/11 07:48:14;;;;;;;32.67;6.18;;;8.30;99.90;;;;;;6145217;28;20056;-86
2022/11/11 07:51:16;;;;;;;19.92;3.35;;;8.40;99.90;;;;;;6143550;28;20052;-84
2022/11/11 07:54:17;;;;;;;17.88;3.55;;;8.50;99.90;;;;;;6140832;29;20055;-85
2022/11/11 07:57:19;;;;;;;6.18;3.63;;;8.60;99.90;;;;;;6134649;28;20059;-84
2022/11/11 08:00:22;;;;;;;9.55;2.85;;;8.60;99.90;;;;;;6133887;28;20043;-84
2022/11/11 08:03:25;;;;;;;20.17;4.07;;;8.80;99.90;;;;;;6132604;28;20134;-83
2022/11/11 08:06:26;;;;;;;15.35;4.15;;;8.90;99.90;;;;;;6132304;29;20055;-83
2022/11/11 08:09:28;;;;;;;10.68;4.40;;;9.00;99.90;;;;;;6130696;28;20048;-83
2022/11/11 08:15:49;;;;;;;14.90;6.07;;;9.10;99.90;;;;;;6139224;28;20465;-84
2022/11/11 08:18:53;;;;;;;16.42;5.00;;;9.30;99.90;;;;;;6116533;28;20074;-84
2022/11/11 08:21:54;;;;;;;22.70;4.43;;;9.40;99.90;;;;;;6126797;29;20052;-84
2022/11/11 08:24:56;;;;;;;10.00;4.22;;;9.40;99.90;;;;;;6134662;28;20054;-84
2022/11/11 08:27:58;;;;;;;14.30;4.95;;;9.40;99.90;;;;;;6147218;28;20509;-84
2022/11/11 08:31:02;;;;;;;35.88;5.10;;;9.40;99.90;;;;;;6142364;29;20047;-84
2022/11/11 08:34:06;;;;;;;27.50;5.25;;;9.60;99.90;;;;;;6146183;28;20047;-84
2022/11/11 08:37:07;;;;;;;15.82;3.92;;;9.50;99.90;;;;;;6156869;28;20051;-84
2022/11/11 08:40:09;;;;;;;23.02;5.22;;;9.60;99.90;;;;;;6158094;28;20063;-84
2022/11/11 08:43:11;;;;;;;10.90;4.75;;;9.60;99.90;;;;;;6161093;28;20051;-83
2022/11/11 08:46:13;;;;;;;16.80;6.45;;;9.50;99.90;;;;;;6160361;28;20442;-84
2022/11/11 08:49:16;;;;;;;20.58;5.25;;;9.60;99.90;;;;;;6158100;28;20066;-83
2022/11/11 08:52:18;;;;;;;44.40;5.63;;;9.70;99.90;;;;;;6159995;28;20054;-83
2022/11/11 08:55:20;;;;;;;43.53;5.53;;;9.80;99.90;;;;;;6155638;28;20061;-83
2022/11/11 08:58:21;;;;;;;35.67;4.63;;;9.70;99.90;;;;;;6146789;29;20077;-83
2022/11/11 09:01:23;;;;;;;10.73;4.07;;;9.80;99.90;;;;;;6156054;28;20429;-83
2022/11/11 09:04:26;;;;;;;67.68;6.13;;;10.00;99.90;;;;;;6155742;28;20098;-85
2022/11/11 09:07:28;;;;;;;6.97;3.83;;;10.20;99.90;;;;;;6155335;28;20062;-84
2022/11/11 09:10:30;;;;;;;21.38;4.85;;;10.50;99.90;;;;;;6156429;28;20066;-84
2022/11/11 09:13:32;;;;;;;5.60;3.60;;;10.70;99.90;;;;;;6155214;28;20044;-84
2022/11/11 09:16:33;;;;;;;8.85;4.03;;;10.90;99.90;;;;;;6154431;28;20487;-84
2022/11/11 09:19:37;;;;;;;6.88;3.83;;;11.10;99.90;;;;;;6153448;28;20066;-83
2022/11/11 09:22:42;;;;;;;6.80;3.47;;;11.40;99.90;;;;;;6155618;28;20051;-84
2022/11/11 09:25:44;;;;;;;5.20;3.67;;;11.60;99.90;;;;;;6149753;28;20421;-84
2022/11/11 09:28:45;;;;;;;7.03;3.40;;;11.80;99.90;;;;;;6147100;28;20047;-83
2022/11/11 09:31:47;;;;;;;8.57;3.72;;;12.00;99.90;;;;;;6158719;28;20051;-84
2022/11/11 09:34:50;;;;;;;13.40;3.75;;;12.20;99.90;;;;;;6108941;29;20525;-85
2022/11/11 09:37:56;;;;;;;5.35;3.38;;;12.30;99.90;;;;;;6106052;29;20051;-83
2022/11/11 09:41:08;;;;;;;5.15;2.85;;;12.40;99.90;;;;;;6106416;29;20048;-85
2022/11/11 09:44:21;;;;;;;6.10;3.33;;;12.50;99.90;;;;;;6108436;28;20426;-83
2022/11/11 09:47:31;;;;;;;6.88;3.53;;;12.50;99.90;;;;;;6108103;29;20051;-82
2022/11/11 09:50:39;;;;;;;4.20;2.42;;;12.70;99.90;;;;;;6110487;29;20052;-84
2022/11/11 09:53:46;;;;;;;4.70;3.20;;;13.10;99.90;;;;;;6113090;28;20403;-85
2022/11/11 09:56:48;;;;;;;4.57;3.03;;;13.30;99.90;;;;;;6108094;29;20064;-87
2022/11/11 09:59:54;;;;;;;7.30;3.40;;;13.30;99.90;;;;;;6107813;29;20048;-85
2022/11/11 10:03:04;;;;;;;7.43;3.13;;;13.30;99.90;;;;;;6109759;29;20040;-85
2022/11/11 10:06:15;;;;;;;10.05;3.47;;;13.20;99.90;;;;;;6108491;29;20044;-86
2022/11/11 10:09:23;;;;;;;4.65;3.40;;;13.10;99.90;;;;;;6111597;29;20051;-86
2022/11/11 10:12:33;;;;;;;6.93;3.45;;;13.00;99.90;;;;;;6111524;29;20044;-85
2022/11/11 10:15:46;;;;;;;5.68;3.17;;;13.00;99.90;;;;;;6110028;29;20533;-85
2022/11/11 10:19:02;;;;;;;8.82;4.22;;;13.00;99.90;;;;;;6110929;29;20168;-84
2022/11/11 10:22:13;;;;;;;5.40;3.10;;;13.10;99.90;;;;;;6110044;29;20418;-85
2022/11/11 10:25:26;;;;;;;4.82;2.88;;;13.20;99.90;;;;;;6110204;29;20044;-86
2022/11/11 10:28:35;;;;;;;4.70;3.08;;;13.20;99.90;;;;;;6110803;28;20522;-84
2022/11/11 10:31:37;;;;;;;5.20;3.45;;;13.30;99.90;;;;;;6110108;29;20044;-84
2022/11/11 10:34:39;;;;;;;5.47;3.35;;;13.40;99.90;;;;;;6111538;29;20048;-86
2022/11/11 10:37:43;;;;;;;7.05;3.83;;;13.30;99.90;;;;;;6110916;29;20451;-85
2022/11/11 10:40:49;;;;;;;5.60;3.60;;;13.20;99.80;;;;;;6112040;29;20063;-85
2022/11/11 10:43:50;;;;;;;5.70;4.07;;;13.10;99.70;;;;;;6111864;29;20051;-84
2022/11/11 10:47:01;;;;;;;10.10;4.63;;;13.10;99.70;;;;;;6110978;29;20055;-85
2022/11/11 10:50:11;;;;;;;8.38;4.20;;;13.00;99.70;;;;;;6111534;29;20051;-84
2022/11/11 10:53:20;;;;;;;8.80;4.68;;;13.10;99.70;;;;;;6110343;29;20055;-85
2022/11/11 10:56:28;;;;;;;7.05;4.78;;;13.10;99.60;;;;;;6111808;29;20044;-84
2022/11/11 10:59:35;;;;;;;7.18;4.22;;;13.20;99.60;;;;;;6111637;29;20067;-85
2022/11/11 11:02:45;;;;;;;6.97;4.28;;;13.20;99.30;;;;;;6109713;29;20055;-85
2022/11/11 11:05:52;;;;;;;7.50;4.15;;;13.00;99.20;;;;;;6109307;29;20476;-85
2022/11/11 11:09:01;;;;;;;11.27;4.43;;;12.90;99.30;;;;;;6109993;29;20502;-84
2022/11/11 11:12:09;;;;;;;8.60;5.32;;;12.90;99.40;;;;;;6111306;29;20048;-85
2022/11/11 11:15:16;;;;;;;12.57;4.38;;;12.90;99.30;;;;;;6110864;29;20052;-85
2022/11/11 11:18:19;;;;;;;6.80;3.53;;;13.00;99.50;;;;;;6111033;29;20125;-85
2022/11/11 11:21:21;;;;;;;7.57;4.78;;;13.20;99.40;;;;;;6110195;28;20147;-85
2022/11/11 11:24:26;;;;;;;9.80;4.68;;;13.40;99.20;;;;;;6111638;29;20102;-85
2022/11/11 11:27:27;;;;;;;7.03;3.78;;;13.50;99.00;;;;;;6117159;29;20052;-88
2022/11/11 11:30:29;;;;;;;7.35;3.65;;;13.80;98.90;;;;;;6133544;29;20340;-87
2022/11/11 11:33:51;;;;;;;7.47;4.28;;;13.60;98.80;;;;;;6129054;29;20056;-87
2022/11/11 11:37:00;;;;;;;6.45;3.75;;;13.60;99.00;;;;;;6119816;28;20048;-87
2022/11/11 11:40:07;;;;;;;6.13;3.88;;;13.50;98.80;;;;;;6118077;29;20055;-86
2022/11/11 11:43:25;;;;;;;5.07;3.67;;;13.50;98.90;;;;;;6119110;29;20060;-86
2022/11/11 11:46:29;;;;;;;6.63;3.97;;;13.60;98.80;;;;;;6095339;29;20055;-87
2022/11/11 11:49:51;;;;;;;6.57;4.18;;;13.70;98.70;;;;;;6110770;29;20056;-86
2022/11/11 11:53:06;;;;;;;6.53;3.63;;;13.80;98.60;;;;;;6116766;29;20064;-86
2022/11/11 11:56:18;;;;;;;5.63;3.28;;;13.70;98.50;;;;;;6115878;29;20052;-85
2022/11/11 11:59:26;;;;;;;10.70;4.22;;;13.70;98.50;;;;;;6114980;29;20060;-86
2022/11/11 12:02:58;;;;;;;10.55;4.43;;;13.50;98.60;;;;;;6114598;29;20052;-86
2022/11/11 12:06:06;;;;;;;5.82;3.63;;;13.40;98.70;;;;;;6114475;29;20532;-86
2022/11/11 12:09:20;;;;;;;6.40;3.88;;;13.40;98.60;;;;;;6113315;28;20160;-84
2022/11/11 12:12:32;;;;;;;6.68;4.53;;;13.50;98.70;;;;;;6112234;29;20070;-85
2022/11/11 12:15:39;;;;;;;7.38;4.18;;;13.50;98.70;;;;;;6113388;29;20570;-86
2022/11/11 12:18:56;;;;;;;7.03;4.40;;;13.50;98.60;;;;;;6112573;29;20462;-84
2022/11/11 12:22:06;;;;;;;5.50;3.85;;;13.60;98.30;;;;;;6111455;29;20040;-86
2022/11/11 12:25:17;;;;;;;7.65;5.13;;;13.50;98.30;;;;;;6112422;28;20052;-86
2022/11/11 12:28:30;;;;;;;6.80;3.95;;;13.60;98.50;;;;;;6111284;29;20056;-84
2022/11/11 12:31:43;;;;;;;10.57;5.07;;;13.60;98.40;;;;;;6110668;29;20051;-86
2022/11/11 12:35:05;;;;;;;16.92;5.90;;;13.50;98.30;;;;;;6112078;29;20059;-85
2022/11/11 12:38:27;;;;;;;9.68;5.82;;;13.50;98.50;;;;;;6099299;29;20048;-84
2022/11/11 12:41:44;;;;;;;24.70;15.63;;;13.50;98.50;;;;;;6109358;29;20044;-84
2022/11/11 12:44:56;;;;;;;18.48;9.85;;;13.60;98.40;;;;;;6115436;29;20058;-86
2022/11/11 12:48:06;;;;;;;12.98;8.27;;;13.60;98.40;;;;;;6110802;29;20048;-86
2022/11/11 12:51:18;;;;;;;38.63;23.67;;;13.60;98.40;;;;;;6109058;29;20052;-84
2022/11/11 12:54:30;;;;;;;24.23;14.07;;;13.60;98.30;;;;;;6108522;29;20059;-84
2022/11/11 12:57:44;;;;;;;63.15;37.90;;;13.60;98.30;;;;;;6107721;28;20115;-84
2022/11/11 13:01:01;;;;;;;18.73;8.95;;;13.50;98.30;;;;;;6109974;29;20055;-84
2022/11/11 13:04:28;;;;;;;19.10;9.02;;;13.60;98.30;;;;;;6110316;28;20415;-84
2022/11/11 13:07:49;;;;;;;23.10;13.23;;;13.60;98.30;;;;;;6109144;29;20071;-84
2022/11/11 13:10:58;;;;;;;13.38;9.02;;;13.60;98.30;;;;;;6114805;29;20055;-85
2022/11/11 13:14:17;;;;;;;11.65;6.03;;;13.60;98.50;;;;;;6133423;28;20051;-84
2022/11/11 13:17:20;;;;;;;11.75;6.72;;;13.60;98.10;;;;;;6139774;28;20054;-83
2022/11/11 13:20:40;;;;;;;15.85;7.80;;;13.60;98.10;;;;;;6149405;28;20052;-87
2022/11/11 13:23:42;;;;;;;26.63;15.75;;;13.50;98.00;;;;;;6137588;28;20052;-85
2022/11/11 13:26:47;;;;;;;15.35;9.52;;;13.50;98.20;;;;;;6136664;29;20051;-87
2022/11/11 13:30:22;;;;;;;16.83;8.35;;;13.50;98.30;;;;;;6134378;29;20051;-85
2022/11/11 13:33:36;;;;;;;17.25;8.77;;;13.50;98.30;;;;;;6117929;29;20047;-86
2022/11/11 13:36:44;;;;;;;16.45;8.45;;;13.60;98.20;;;;;;6134213;29;20048;-86
2022/11/11 13:39:49;;;;;;;31.52;18.58;;;13.50;98.30;;;;;;6132829;29;20152;-86
2022/11/11 13:42:52;;;;;;;16.15;10.23;;;13.50;98.30;;;;;;6134845;29;20214;-84
2022/11/11 13:45:56;;;;;;;15.68;8.52;;;13.50;98.30;;;;;;6144895;29;20056;-85
2022/11/11 13:49:09;;;;;;;17.05;9.35;;;13.40;98.40;;;;;;6226950;23;20061;-84
2022/11/11 13:52:21;;;;;;;18.75;10.10;;;13.30;98.40;;;;;;6205705;28;20038;-85
2022/11/11 13:55:30;;;;;;;14.43;8.38;;;13.10;98.50;;;;;;6205411;28;20057;-85
2022/11/11 13:58:35;;;;;;;20.60;9.82;;;13.20;98.60;;;;;;6204376;28;20061;-85
2022/11/11 14:01:39;;;;;;;16.52;8.43;;;13.10;98.60;;;;;;6205610;28;20467;-84
2022/11/11 14:05:17;;;;;;;18.85;9.13;;;13.10;98.60;;;;;;6205900;28;20046;-85
2022/11/11 14:08:51;;;;;;;68.68;10.35;;;13.00;98.70;;;;;;6204227;28;20042;-85
2022/11/11 14:12:31;;;;;;;20.58;8.95;;;12.80;98.50;;;;;;6206811;28;20039;-84
2022/11/11 14:15:41;;;;;;;20.13;8.23;;;12.60;98.70;;;;;;6213707;28;20046;-82
2022/11/11 14:18:44;;;;;;;26.75;8.48;;;12.40;98.80;;;;;;6231209;28;20058;-82
2022/11/11 14:21:54;;;;;;;35.72;12.18;;;12.30;98.90;;;;;;6234793;28;20049;-82
2022/11/11 14:25:09;;;;;;;18.88;8.98;;;12.20;99.10;;;;;;6233751;28;20045;-81
2022/11/11 14:28:21;;;;;;;49.33;12.05;;;12.30;99.10;;;;;;6231053;28;20056;-82
2022/11/11 14:32:01;;;;;;;18.85;8.48;;;12.20;99.10;;;;;;6232569;28;20053;-82
2022/11/11 14:35:20;;;;;;;22.90;11.70;;;12.20;99.30;;;;;;6212090;28;20488;-86
2022/11/11 14:38:40;;;;;;;181.95;90.95;;;12.30;99.20;;;;;;6231263;28;20050;-85
2022/11/11 14:41:48;;;;;;;39.33;11.68;;;12.20;99.20;;;;;;6239010;28;20038;-86
2022/11/11 14:44:51;;;;;;;29.02;8.80;;;12.20;99.20;;;;;;6233917;28;20089;-85
2022/11/11 14:47:55;;;;;;;66.15;13.88;;;12.10;99.30;;;;;;6231025;28;20046;-85
2022/11/11 14:51:00;;;;;;;58.33;9.70;;;12.00;99.30;;;;;;6231686;28;20046;-85
2022/11/11 14:54:05;;;;;;;29.95;8.13;;;11.90;99.40;;;;;;6234198;28;20046;-86
2022/11/11 14:57:16;;;;;;;42.15;8.95;;;11.90;99.40;;;;;;6232820;28;20048;-84
2022/11/11 15:00:20;;;;;;;34.72;9.57;;;11.80;99.50;;;;;;6231420;28;20046;-85
2022/11/11 15:03:28;;;;;;;64.63;11.40;;;11.70;99.60;;;;;;6231721;28;20081;-86
2022/11/11 15:06:33;;;;;;;;;;;11.70;99.80;;;;;;6233281;28;20054;-84
2022/11/11 15:10:04;;;;;;;97.45;15.25;;;11.80;99.90;;;;;;6231188;28;20060;-85
2022/11/11 15:13:37;;;;;;;48.97;10.00;;;11.70;99.70;;;;;;6227616;28;20050;-88
2022/11/11 15:16:53;;;;;;;80.78;11.75;;;11.50;99.80;;;;;;6233008;28;20050;-85
2022/11/11 15:20:19;;;;;;;34.55;10.60;;;11.50;99.90;;;;;;6237084;28;20045;-85
2022/11/11 15:23:31;;;;;;;69.93;11.93;;;11.50;99.90;;;;;;6227870;28;20045;-85
2022/11/11 15:26:40;;;;;;;47.17;10.05;;;11.40;99.90;;;;;;6217791;28;20061;-85
2022/11/11 15:30:10;;;;;;;56.80;10.43;;;11.40;99.90;;;;;;6206066;28;20050;-86
2022/11/11 15:33:18;;;;;;;125.82;16.73;;;11.40;99.90;;;;;;6210197;28;20042;-86
2022/11/11 15:36:33;;;;;;;42.25;11.02;;;11.40;99.90;;;;;;6207904;28;20181;-85
2022/11/11 15:39:40;;;;;;;80.78;11.43;;;11.40;99.90;;;;;;6204897;28;20083;-86
2022/11/11 15:42:46;;;;;;;82.82;13.52;;;11.30;99.90;;;;;;6209229;28;20081;-86
2022/11/11 15:45:52;;;;;;;83.95;11.98;;;11.20;99.90;;;;;;6205070;28;20132;-85
2022/11/11 15:48:54;;;;;;;44.03;10.13;;;11.00;99.90;;;;;;6214497;28;20507;-84
2022/11/11 15:51:57;;;;;;;23.48;8.00;;;10.90;99.90;;;;;;6228410;28;20050;-83
2022/11/11 15:55:02;;;;;;;111.13;12.88;;;10.90;99.90;;;;;;6231137;28;20060;-85
2022/11/11 15:58:15;;;;;;;79.45;10.70;;;10.90;99.90;;;;;;6229792;28;20415;-85
2022/11/11 16:01:17;;;;;;;19.42;8.18;;;10.90;99.90;;;;;;6230847;28;20045;-84
2022/11/11 16:04:21;;;;;;;67.18;8.82;;;10.90;99.90;;;;;;6230450;28;20050;-84
2022/11/11 16:07:26;;;;;;;43.15;8.55;;;10.90;99.90;;;;;;6229827;28;20050;-83
2022/11/11 16:10:31;;;;;;;24.63;8.07;;;10.90;99.90;;;;;;6229869;28;20423;-84
2022/11/11 16:13:39;;;;;;;28.67;8.13;;;10.90;99.90;;;;;;6228924;28;20053;-84
2022/11/11 16:16:41;;;;;;;51.53;9.13;;;10.80;99.90;;;;;;6221720;28;20046;-85
2022/11/11 16:19:44;;;;;;;59.30;9.88;;;10.80;99.90;;;;;;6219170;28;20065;-84
2022/11/11 16:22:47;;;;;;;45.22;8.02;;;10.90;99.90;;;;;;6211999;28;20057;-84
2022/11/11 16:25:50;;;;;;;29.52;8.82;;;10.90;99.90;;;;;;6228770;28;20050;-83
2022/11/11 16:28:55;;;;;;;29.25;8.77;;;10.90;99.90;;;;;;6229384;28;20056;-84
2022/11/11 16:31:57;;;;;;;34.72;9.10;;;10.80;99.90;;;;;;6229836;28;20136;-84
2022/11/11 16:34:59;;;;;;;28.48;7.63;;;10.90;99.90;;;;;;6229881;28;20049;-83
2022/11/11 16:38:02;;;;;;;138.52;15.73;;;10.90;99.90;;;;;;6228372;28;20522;-83
2022/11/11 16:41:05;;;;;;;33.80;8.55;;;10.80;99.90;;;;;;6230207;28;20104;-83
2022/11/11 16:44:37;;;;;;;72.10;10.45;;;10.60;99.90;;;;;;6228551;28;20672;-84
2022/11/11 16:47:50;;;;;;;36.35;10.07;;;10.60;99.90;;;;;;6220307;28;20060;-85
2022/11/11 16:50:59;;;;;;;24.45;8.02;;;10.60;99.90;;;;;;6229430;28;20053;-84
2022/11/11 16:54:09;;;;;;;30.27;9.15;;;10.60;99.90;;;;;;6227814;28;20046;-84
2022/11/11 16:57:16;;;;;;;73.80;12.93;;;10.70;99.90;;;;;;6228382;28;20054;-84
2022/11/11 17:00:21;;;;;;;75.03;18.30;;;10.70;99.90;;;;;;6229770;28;20431;-83
2022/11/11 17:03:24;;;;;;;65.65;15.43;;;10.80;99.90;;;;;;6227559;28;20050;-83
2022/11/11 17:06:50;;;;;;;76.65;11.65;;;10.80;99.90;;;;;;6228166;28;20060;-83
2022/11/11 17:09:54;;;;;;;35.85;9.20;;;10.70;99.90;;;;;;6225999;28;20041;-84
2022/11/11 17:12:55;;;;;;;67.90;11.27;;;10.70;99.90;;;;;;6227220;28;20053;-82
2022/11/11 17:16:02;;;;;;;150.70;14.65;;;10.70;99.90;;;;;;6215688;28;20549;-84
2022/11/11 17:19:05;;;;;;;61.03;10.23;;;10.50;99.90;;;;;;6202883;28;20495;-83